sensor_id;sensor_type;location;lat;lon;timestamp;P1;durP1;ratioP1;P2;durP2;ratioP2
52868;SDS011;39100;53.480;6.158;2023-02-04T00:01:26;3.67;;;0.93;;
52868;SDS011;39100;53.480;6.158;2023-02-04T00:03:52;7.40;;;1.70;;
52868;SDS011;39100;53.480;6.158;2023-02-04T00:06:17;6.15;;;1.42;;
52868;SDS011;39100;53.480;6.158;2023-02-04T00:08:43;10.25;;;1.02;;
52868;SDS011;39100;53.480;6.158;2023-02-04T00:11:08;10.75;;;1.15;;
52868;SDS011;39100;53.480;6.158;2023-02-04T00:13:34;5.97;;;1.52;;
52868;SDS011;39100;53.480;6.158;2023-02-04T00:16:00;10.30;;;1.00;;
52868;SDS011;39100;53.480;6.158;2023-02-04T00:18:26;8.45;;;1.42;;
52868;SDS011;39100;53.480;6.158;2023-02-04T00:20:52;9.35;;;1.30;;
52868;SDS011;39100;53.480;6.158;2023-02-04T00:23:18;5.18;;;0.98;;
52868;SDS011;39100;53.480;6.158;2023-02-04T00:25:43;12.93;;;1.30;;
52868;SDS011;39100;53.480;6.158;2023-02-04T00:28:09;6.80;;;1.45;;
52868;SDS011;39100;53.480;6.158;2023-02-04T00:30:34;6.88;;;1.73;;
52868;SDS011;39100;53.480;6.158;2023-02-04T00:33:00;9.15;;;1.75;;
52868;SDS011;39100;53.480;6.158;2023-02-04T00:35:26;4.20;;;1.05;;
52868;SDS011;39100;53.480;6.158;2023-02-04T00:37:51;7.40;;;1.67;;
52868;SDS011;39100;53.480;6.158;2023-02-04T00:40:17;6.15;;;1.30;;
52868;SDS011;39100;53.480;6.158;2023-02-04T00:42:43;8.63;;;1.60;;
52868;SDS011;39100;53.480;6.158;2023-02-04T00:45:08;7.18;;;1.10;;
52868;SDS011;39100;53.480;6.158;2023-02-04T00:47:35;7.07;;;1.65;;
52868;SDS011;39100;53.480;6.158;2023-02-04T00:50:01;6.78;;;1.60;;
52868;SDS011;39100;53.480;6.158;2023-02-04T00:52:26;10.48;;;1.58;;
52868;SDS011;39100;53.480;6.158;2023-02-04T00:54:52;7.53;;;1.83;;
52868;SDS011;39100;53.480;6.158;2023-02-04T00:57:17;8.90;;;1.83;;
52868;SDS011;39100;53.480;6.158;2023-02-04T00:59:43;8.65;;;2.22;;
52868;SDS011;39100;53.480;6.158;2023-02-04T01:02:09;4.85;;;1.67;;
52868;SDS011;39100;53.480;6.158;2023-02-04T01:04:34;8.95;;;1.60;;
52868;SDS011;39100;53.480;6.158;2023-02-04T01:07:00;11.70;;;2.10;;
52868;SDS011;39100;53.480;6.158;2023-02-04T01:09:25;10.55;;;2.00;;
52868;SDS011;39100;53.480;6.158;2023-02-04T01:11:51;8.88;;;1.50;;
52868;SDS011;39100;53.480;6.158;2023-02-04T01:14:17;10.00;;;1.85;;
52868;SDS011;39100;53.480;6.158;2023-02-04T01:16:42;9.07;;;1.83;;
52868;SDS011;39100;53.480;6.158;2023-02-04T01:19:09;10.18;;;2.60;;
52868;SDS011;39100;53.480;6.158;2023-02-04T01:21:34;9.23;;;1.50;;
52868;SDS011;39100;53.480;6.158;2023-02-04T01:24:00;6.32;;;1.38;;
52868;SDS011;39100;53.480;6.158;2023-02-04T01:26:26;9.38;;;1.25;;
52868;SDS011;39100;53.480;6.158;2023-02-04T01:28:51;7.80;;;1.52;;
52868;SDS011;39100;53.480;6.158;2023-02-04T01:31:17;10.77;;;2.10;;
52868;SDS011;39100;53.480;6.158;2023-02-04T01:33:43;12.30;;;2.17;;
52868;SDS011;39100;53.480;6.158;2023-02-04T01:36:08;9.80;;;1.55;;
52868;SDS011;39100;53.480;6.158;2023-02-04T01:38:34;12.73;;;1.35;;
52868;SDS011;39100;53.480;6.158;2023-02-04T01:41:00;8.65;;;1.25;;
52868;SDS011;39100;53.480;6.158;2023-02-04T01:43:26;8.35;;;1.27;;
52868;SDS011;39100;53.480;6.158;2023-02-04T01:45:52;6.97;;;1.42;;
52868;SDS011;39100;53.480;6.158;2023-02-04T01:48:18;6.18;;;1.48;;
52868;SDS011;39100;53.480;6.158;2023-02-04T01:50:49;6.43;;;1.10;;
52868;SDS011;39100;53.480;6.158;2023-02-04T01:53:17;9.02;;;1.35;;
52868;SDS011;39100;53.480;6.158;2023-02-04T01:55:49;7.88;;;1.40;;
52868;SDS011;39100;53.480;6.158;2023-02-04T01:58:15;7.53;;;1.08;;
52868;SDS011;39100;53.480;6.158;2023-02-04T02:00:41;8.27;;;1.20;;
52868;SDS011;39100;53.480;6.158;2023-02-04T02:03:07;7.82;;;1.35;;
52868;SDS011;39100;53.480;6.158;2023-02-04T02:08:12;9.73;;;1.27;;
52868;SDS011;39100;53.480;6.158;2023-02-04T02:10:40;8.52;;;1.27;;
52868;SDS011;39100;53.480;6.158;2023-02-04T02:13:09;6.40;;;1.38;;
52868;SDS011;39100;53.480;6.158;2023-02-04T02:15:37;7.40;;;1.50;;
52868;SDS011;39100;53.480;6.158;2023-02-04T02:18:03;4.60;;;0.77;;
52868;SDS011;39100;53.480;6.158;2023-02-04T02:20:29;5.13;;;1.15;;
52868;SDS011;39100;53.480;6.158;2023-02-04T02:25:29;8.52;;;1.27;;
52868;SDS011;39100;53.480;6.158;2023-02-04T02:27:55;12.10;;;1.88;;
52868;SDS011;39100;53.480;6.158;2023-02-04T02:30:22;7.60;;;1.75;;
52868;SDS011;39100;53.480;6.158;2023-02-04T02:32:48;6.82;;;1.08;;
52868;SDS011;39100;53.480;6.158;2023-02-04T02:35:15;11.95;;;1.65;;
52868;SDS011;39100;53.480;6.158;2023-02-04T02:37:41;5.85;;;0.80;;
52868;SDS011;39100;53.480;6.158;2023-02-04T02:40:07;5.57;;;1.45;;
52868;SDS011;39100;53.480;6.158;2023-02-04T02:42:34;9.63;;;1.75;;
52868;SDS011;39100;53.480;6.158;2023-02-04T02:45:00;12.52;;;1.88;;
52868;SDS011;39100;53.480;6.158;2023-02-04T02:47:40;8.20;;;2.03;;
52868;SDS011;39100;53.480;6.158;2023-02-04T02:50:06;6.32;;;1.50;;
52868;SDS011;39100;53.480;6.158;2023-02-04T02:52:36;7.63;;;2.53;;
52868;SDS011;39100;53.480;6.158;2023-02-04T02:55:02;6.13;;;1.40;;
52868;SDS011;39100;53.480;6.158;2023-02-04T02:57:28;10.38;;;2.15;;
52868;SDS011;39100;53.480;6.158;2023-02-04T02:59:53;9.18;;;1.30;;
52868;SDS011;39100;53.480;6.158;2023-02-04T03:02:19;10.23;;;1.88;;
52868;SDS011;39100;53.480;6.158;2023-02-04T03:04:49;7.18;;;1.75;;
52868;SDS011;39100;53.480;6.158;2023-02-04T03:07:18;8.20;;;1.67;;
52868;SDS011;39100;53.480;6.158;2023-02-04T03:09:46;6.13;;;1.92;;
52868;SDS011;39100;53.480;6.158;2023-02-04T03:12:12;10.07;;;1.48;;
52868;SDS011;39100;53.480;6.158;2023-02-04T03:14:37;6.38;;;1.60;;
52868;SDS011;39100;53.480;6.158;2023-02-04T03:17:03;8.75;;;1.10;;
52868;SDS011;39100;53.480;6.158;2023-02-04T03:19:32;9.68;;;0.85;;
52868;SDS011;39100;53.480;6.158;2023-02-04T03:22:00;10.07;;;1.00;;
52868;SDS011;39100;53.480;6.158;2023-02-04T03:24:26;6.82;;;1.35;;
52868;SDS011;39100;53.480;6.158;2023-02-04T03:26:51;5.07;;;0.90;;
52868;SDS011;39100;53.480;6.158;2023-02-04T03:29:17;4.03;;;0.73;;
52868;SDS011;39100;53.480;6.158;2023-02-04T03:31:43;5.07;;;1.38;;
52868;SDS011;39100;53.480;6.158;2023-02-04T03:34:09;3.63;;;0.82;;
52868;SDS011;39100;53.480;6.158;2023-02-04T03:36:34;5.57;;;0.70;;
52868;SDS011;39100;53.480;6.158;2023-02-04T03:39:00;3.80;;;0.70;;
52868;SDS011;39100;53.480;6.158;2023-02-04T03:41:27;3.45;;;0.57;;
52868;SDS011;39100;53.480;6.158;2023-02-04T03:43:53;6.10;;;1.02;;
52868;SDS011;39100;53.480;6.158;2023-02-04T03:46:19;4.20;;;1.00;;
52868;SDS011;39100;53.480;6.158;2023-02-04T03:48:47;7.95;;;1.35;;
52868;SDS011;39100;53.480;6.158;2023-02-04T03:51:12;10.75;;;1.75;;
52868;SDS011;39100;53.480;6.158;2023-02-04T03:53:38;7.10;;;1.25;;
52868;SDS011;39100;53.480;6.158;2023-02-04T03:56:03;7.38;;;2.22;;
52868;SDS011;39100;53.480;6.158;2023-02-04T03:58:29;6.47;;;1.83;;
52868;SDS011;39100;53.480;6.158;2023-02-04T04:00:55;4.15;;;1.10;;
52868;SDS011;39100;53.480;6.158;2023-02-04T04:03:20;6.30;;;1.35;;
52868;SDS011;39100;53.480;6.158;2023-02-04T04:05:46;7.45;;;1.40;;
52868;SDS011;39100;53.480;6.158;2023-02-04T04:08:11;7.03;;;2.03;;
52868;SDS011;39100;53.480;6.158;2023-02-04T04:10:37;10.00;;;2.10;;
52868;SDS011;39100;53.480;6.158;2023-02-04T04:13:02;7.05;;;1.02;;
52868;SDS011;39100;53.480;6.158;2023-02-04T04:15:28;9.85;;;2.05;;
52868;SDS011;39100;53.480;6.158;2023-02-04T04:17:54;9.35;;;1.50;;
52868;SDS011;39100;53.480;6.158;2023-02-04T04:20:20;10.02;;;1.25;;
52868;SDS011;39100;53.480;6.158;2023-02-04T04:22:49;9.80;;;1.73;;
52868;SDS011;39100;53.480;6.158;2023-02-04T04:25:15;11.85;;;1.52;;
52868;SDS011;39100;53.480;6.158;2023-02-04T04:27:41;7.28;;;1.80;;
52868;SDS011;39100;53.480;6.158;2023-02-04T04:30:07;5.18;;;1.13;;
52868;SDS011;39100;53.480;6.158;2023-02-04T04:32:33;3.70;;;1.02;;
52868;SDS011;39100;53.480;6.158;2023-02-04T04:34:58;4.25;;;0.85;;
52868;SDS011;39100;53.480;6.158;2023-02-04T04:37:24;6.50;;;1.05;;
52868;SDS011;39100;53.480;6.158;2023-02-04T04:39:49;4.88;;;1.35;;
52868;SDS011;39100;53.480;6.158;2023-02-04T04:42:15;4.20;;;1.27;;
52868;SDS011;39100;53.480;6.158;2023-02-04T04:44:40;2.75;;;0.80;;
52868;SDS011;39100;53.480;6.158;2023-02-04T04:47:06;9.68;;;1.00;;
52868;SDS011;39100;53.480;6.158;2023-02-04T04:49:31;5.03;;;0.80;;
52868;SDS011;39100;53.480;6.158;2023-02-04T04:51:57;5.15;;;0.98;;
52868;SDS011;39100;53.480;6.158;2023-02-04T04:54:22;5.47;;;1.30;;
52868;SDS011;39100;53.480;6.158;2023-02-04T04:56:48;7.00;;;1.33;;
52868;SDS011;39100;53.480;6.158;2023-02-04T04:59:13;6.28;;;1.00;;
52868;SDS011;39100;53.480;6.158;2023-02-04T05:01:39;6.90;;;1.15;;
52868;SDS011;39100;53.480;6.158;2023-02-04T05:04:05;5.93;;;0.98;;
52868;SDS011;39100;53.480;6.158;2023-02-04T05:06:30;6.05;;;1.10;;
52868;SDS011;39100;53.480;6.158;2023-02-04T05:08:56;7.95;;;1.50;;
52868;SDS011;39100;53.480;6.158;2023-02-04T05:11:21;5.90;;;1.42;;
52868;SDS011;39100;53.480;6.158;2023-02-04T05:13:47;4.63;;;0.82;;
52868;SDS011;39100;53.480;6.158;2023-02-04T05:16:12;4.05;;;0.95;;
52868;SDS011;39100;53.480;6.158;2023-02-04T05:18:39;6.00;;;0.93;;
52868;SDS011;39100;53.480;6.158;2023-02-04T05:21:05;3.50;;;1.27;;
52868;SDS011;39100;53.480;6.158;2023-02-04T05:23:31;5.10;;;0.98;;
52868;SDS011;39100;53.480;6.158;2023-02-04T05:25:57;7.38;;;1.08;;
52868;SDS011;39100;53.480;6.158;2023-02-04T05:28:22;4.88;;;1.33;;
52868;SDS011;39100;53.480;6.158;2023-02-04T05:30:48;6.30;;;1.38;;
52868;SDS011;39100;53.480;6.158;2023-02-04T05:33:14;5.07;;;1.10;;
52868;SDS011;39100;53.480;6.158;2023-02-04T05:35:39;6.90;;;1.30;;
52868;SDS011;39100;53.480;6.158;2023-02-04T05:38:05;7.25;;;1.17;;
52868;SDS011;39100;53.480;6.158;2023-02-04T05:40:30;8.48;;;1.30;;
52868;SDS011;39100;53.480;6.158;2023-02-04T05:42:56;6.20;;;1.15;;
52868;SDS011;39100;53.480;6.158;2023-02-04T05:45:21;7.55;;;1.23;;
52868;SDS011;39100;53.480;6.158;2023-02-04T05:47:47;5.50;;;1.38;;
52868;SDS011;39100;53.480;6.158;2023-02-04T05:50:13;7.60;;;1.75;;
52868;SDS011;39100;53.480;6.158;2023-02-04T05:52:38;6.97;;;1.63;;
52868;SDS011;39100;53.480;6.158;2023-02-04T05:55:04;7.85;;;1.02;;
52868;SDS011;39100;53.480;6.158;2023-02-04T05:57:31;7.03;;;1.02;;
52868;SDS011;39100;53.480;6.158;2023-02-04T05:59:56;5.05;;;1.33;;
52868;SDS011;39100;53.480;6.158;2023-02-04T06:02:22;5.68;;;1.35;;
52868;SDS011;39100;53.480;6.158;2023-02-04T06:04:48;4.03;;;0.98;;
52868;SDS011;39100;53.480;6.158;2023-02-04T06:07:13;5.40;;;1.30;;
52868;SDS011;39100;53.480;6.158;2023-02-04T06:09:39;5.00;;;1.15;;
52868;SDS011;39100;53.480;6.158;2023-02-04T06:12:04;5.03;;;2.80;;
52868;SDS011;39100;53.480;6.158;2023-02-04T06:14:30;7.63;;;2.50;;
52868;SDS011;39100;53.480;6.158;2023-02-04T06:16:56;7.25;;;0.68;;
52868;SDS011;39100;53.480;6.158;2023-02-04T06:19:21;10.73;;;1.75;;
52868;SDS011;39100;53.480;6.158;2023-02-04T06:21:47;6.88;;;1.48;;
52868;SDS011;39100;53.480;6.158;2023-02-04T06:24:12;9.55;;;1.40;;
52868;SDS011;39100;53.480;6.158;2023-02-04T06:26:38;8.60;;;1.55;;
52868;SDS011;39100;53.480;6.158;2023-02-04T06:29:04;9.65;;;1.85;;
52868;SDS011;39100;53.480;6.158;2023-02-04T06:31:29;7.13;;;1.35;;
52868;SDS011;39100;53.480;6.158;2023-02-04T06:33:55;6.35;;;1.40;;
52868;SDS011;39100;53.480;6.158;2023-02-04T06:36:21;7.35;;;1.52;;
52868;SDS011;39100;53.480;6.158;2023-02-04T06:38:46;8.85;;;2.00;;
52868;SDS011;39100;53.480;6.158;2023-02-04T06:41:12;7.20;;;1.38;;
52868;SDS011;39100;53.480;6.158;2023-02-04T06:43:37;8.68;;;1.50;;
52868;SDS011;39100;53.480;6.158;2023-02-04T06:46:05;8.10;;;1.20;;
52868;SDS011;39100;53.480;6.158;2023-02-04T06:48:31;7.22;;;1.20;;
52868;SDS011;39100;53.480;6.158;2023-02-04T06:50:56;6.88;;;1.77;;
52868;SDS011;39100;53.480;6.158;2023-02-04T06:53:22;6.47;;;1.90;;
52868;SDS011;39100;53.480;6.158;2023-02-04T06:55:48;11.68;;;1.55;;
52868;SDS011;39100;53.480;6.158;2023-02-04T06:58:13;11.63;;;2.15;;
52868;SDS011;39100;53.480;6.158;2023-02-04T07:00:39;5.85;;;1.63;;
52868;SDS011;39100;53.480;6.158;2023-02-04T07:03:04;7.72;;;1.30;;
52868;SDS011;39100;53.480;6.158;2023-02-04T07:05:31;5.82;;;1.40;;
52868;SDS011;39100;53.480;6.158;2023-02-04T07:07:57;6.20;;;1.40;;
52868;SDS011;39100;53.480;6.158;2023-02-04T07:10:23;7.57;;;2.40;;
52868;SDS011;39100;53.480;6.158;2023-02-04T07:12:48;6.97;;;1.50;;
52868;SDS011;39100;53.480;6.158;2023-02-04T07:15:14;6.82;;;1.25;;
52868;SDS011;39100;53.480;6.158;2023-02-04T07:17:40;3.63;;;1.00;;
52868;SDS011;39100;53.480;6.158;2023-02-04T07:20:06;5.07;;;0.70;;
52868;SDS011;39100;53.480;6.158;2023-02-04T07:22:32;5.50;;;0.90;;
52868;SDS011;39100;53.480;6.158;2023-02-04T07:24:57;5.45;;;0.60;;
52868;SDS011;39100;53.480;6.158;2023-02-04T07:27:23;5.70;;;0.63;;
52868;SDS011;39100;53.480;6.158;2023-02-04T07:29:48;3.83;;;0.70;;
52868;SDS011;39100;53.480;6.158;2023-02-04T07:32:14;5.93;;;0.90;;
52868;SDS011;39100;53.480;6.158;2023-02-04T07:34:40;5.35;;;0.65;;
52868;SDS011;39100;53.480;6.158;2023-02-04T07:37:06;2.00;;;0.77;;
52868;SDS011;39100;53.480;6.158;2023-02-04T07:39:31;3.42;;;0.73;;
52868;SDS011;39100;53.480;6.158;2023-02-04T07:41:57;2.15;;;0.73;;
52868;SDS011;39100;53.480;6.158;2023-02-04T07:44:23;4.10;;;0.55;;
52868;SDS011;39100;53.480;6.158;2023-02-04T07:46:48;2.03;;;0.40;;
52868;SDS011;39100;53.480;6.158;2023-02-04T07:49:14;5.45;;;1.08;;
52868;SDS011;39100;53.480;6.158;2023-02-04T07:51:39;4.25;;;1.00;;
52868;SDS011;39100;53.480;6.158;2023-02-04T07:54:05;4.93;;;0.70;;
52868;SDS011;39100;53.480;6.158;2023-02-04T07:56:30;1.63;;;0.30;;
52868;SDS011;39100;53.480;6.158;2023-02-04T07:58:56;3.60;;;0.40;;
52868;SDS011;39100;53.480;6.158;2023-02-04T08:01:21;6.25;;;0.55;;
52868;SDS011;39100;53.480;6.158;2023-02-04T08:03:47;1.83;;;0.35;;
52868;SDS011;39100;53.480;6.158;2023-02-04T08:06:13;5.00;;;0.80;;
52868;SDS011;39100;53.480;6.158;2023-02-04T08:08:38;3.92;;;0.77;;
52868;SDS011;39100;53.480;6.158;2023-02-04T08:11:04;2.75;;;0.50;;
52868;SDS011;39100;53.480;6.158;2023-02-04T08:13:29;3.92;;;1.27;;
52868;SDS011;39100;53.480;6.158;2023-02-04T08:15:55;1.98;;;0.90;;
52868;SDS011;39100;53.480;6.158;2023-02-04T08:18:20;1.25;;;0.60;;
52868;SDS011;39100;53.480;6.158;2023-02-04T08:20:46;3.67;;;0.50;;
52868;SDS011;39100;53.480;6.158;2023-02-04T08:23:12;3.70;;;0.70;;
52868;SDS011;39100;53.480;6.158;2023-02-04T08:25:37;4.38;;;0.98;;
52868;SDS011;39100;53.480;6.158;2023-02-04T08:28:04;4.57;;;1.23;;
52868;SDS011;39100;53.480;6.158;2023-02-04T08:30:29;2.15;;;0.98;;
52868;SDS011;39100;53.480;6.158;2023-02-04T08:32:55;2.10;;;0.70;;
52868;SDS011;39100;53.480;6.158;2023-02-04T08:35:20;3.13;;;0.68;;
52868;SDS011;39100;53.480;6.158;2023-02-04T08:37:46;3.83;;;0.60;;
52868;SDS011;39100;53.480;6.158;2023-02-04T08:40:11;2.60;;;0.40;;
52868;SDS011;39100;53.480;6.158;2023-02-04T08:42:37;4.47;;;0.80;;
52868;SDS011;39100;53.480;6.158;2023-02-04T08:45:02;2.78;;;0.40;;
52868;SDS011;39100;53.480;6.158;2023-02-04T08:47:28;2.70;;;0.60;;
52868;SDS011;39100;53.480;6.158;2023-02-04T08:49:54;2.90;;;0.73;;
52868;SDS011;39100;53.480;6.158;2023-02-04T08:52:19;3.45;;;0.82;;
52868;SDS011;39100;53.480;6.158;2023-02-04T08:54:45;11.40;;;1.10;;
52868;SDS011;39100;53.480;6.158;2023-02-04T08:57:10;3.95;;;0.40;;
52868;SDS011;39100;53.480;6.158;2023-02-04T08:59:36;1.30;;;0.40;;
52868;SDS011;39100;53.480;6.158;2023-02-04T09:02:02;3.30;;;0.80;;
52868;SDS011;39100;53.480;6.158;2023-02-04T09:04:27;4.53;;;0.70;;
52868;SDS011;39100;53.480;6.158;2023-02-04T09:06:53;3.83;;;0.75;;
52868;SDS011;39100;53.480;6.158;2023-02-04T09:09:19;3.97;;;0.95;;
52868;SDS011;39100;53.480;6.158;2023-02-04T09:11:45;4.45;;;0.55;;
52868;SDS011;39100;53.480;6.158;2023-02-04T09:14:11;2.25;;;0.40;;
52868;SDS011;39100;53.480;6.158;2023-02-04T09:16:36;5.40;;;0.82;;
52868;SDS011;39100;53.480;6.158;2023-02-04T09:19:02;3.80;;;0.80;;
52868;SDS011;39100;53.480;6.158;2023-02-04T09:21:28;3.72;;;0.65;;
52868;SDS011;39100;53.480;6.158;2023-02-04T09:23:54;2.17;;;0.45;;
52868;SDS011;39100;53.480;6.158;2023-02-04T09:26:19;3.65;;;0.73;;
52868;SDS011;39100;53.480;6.158;2023-02-04T09:28:45;3.78;;;0.60;;
52868;SDS011;39100;53.480;6.158;2023-02-04T09:31:12;7.05;;;1.00;;
52868;SDS011;39100;53.480;6.158;2023-02-04T09:33:38;5.65;;;0.55;;
52868;SDS011;39100;53.480;6.158;2023-02-04T09:36:03;4.95;;;0.52;;
52868;SDS011;39100;53.480;6.158;2023-02-04T09:38:29;3.53;;;0.60;;
52868;SDS011;39100;53.480;6.158;2023-02-04T09:40:56;2.85;;;0.52;;
52868;SDS011;39100;53.480;6.158;2023-02-04T09:43:25;2.97;;;0.45;;
52868;SDS011;39100;53.480;6.158;2023-02-04T09:45:55;5.55;;;0.47;;
52868;SDS011;39100;53.480;6.158;2023-02-04T09:48:22;3.00;;;0.75;;
52868;SDS011;39100;53.480;6.158;2023-02-04T09:50:52;2.95;;;0.50;;
52868;SDS011;39100;53.480;6.158;2023-02-04T09:53:28;4.90;;;0.80;;
52868;SDS011;39100;53.480;6.158;2023-02-04T09:55:55;3.88;;;0.90;;
52868;SDS011;39100;53.480;6.158;2023-02-04T09:58:21;2.63;;;0.63;;
52868;SDS011;39100;53.480;6.158;2023-02-04T10:00:55;2.78;;;0.50;;
52868;SDS011;39100;53.480;6.158;2023-02-04T10:03:23;3.80;;;0.30;;
52868;SDS011;39100;53.480;6.158;2023-02-04T10:05:48;2.63;;;0.73;;
52868;SDS011;39100;53.480;6.158;2023-02-04T10:08:16;4.45;;;0.50;;
52868;SDS011;39100;53.480;6.158;2023-02-04T10:10:47;4.35;;;1.30;;
52868;SDS011;39100;53.480;6.158;2023-02-04T10:13:18;4.50;;;0.85;;
52868;SDS011;39100;53.480;6.158;2023-02-04T10:15:46;1.45;;;0.73;;
52868;SDS011;39100;53.480;6.158;2023-02-04T10:18:17;0.60;;;0.32;;
52868;SDS011;39100;53.480;6.158;2023-02-04T10:20:48;4.93;;;0.65;;
52868;SDS011;39100;53.480;6.158;2023-02-04T10:23:14;0.93;;;0.20;;
52868;SDS011;39100;53.480;6.158;2023-02-04T10:25:40;4.32;;;0.77;;
52868;SDS011;39100;53.480;6.158;2023-02-04T10:28:06;2.45;;;0.40;;
52868;SDS011;39100;53.480;6.158;2023-02-04T10:30:37;3.03;;;0.60;;
52868;SDS011;39100;53.480;6.158;2023-02-04T10:33:12;0.70;;;0.30;;
52868;SDS011;39100;53.480;6.158;2023-02-04T10:35:47;2.85;;;0.40;;
52868;SDS011;39100;53.480;6.158;2023-02-04T10:38:14;2.40;;;0.43;;
52868;SDS011;39100;53.480;6.158;2023-02-04T10:40:40;2.00;;;0.80;;
52868;SDS011;39100;53.480;6.158;2023-02-04T10:43:12;1.90;;;0.90;;
52868;SDS011;39100;53.480;6.158;2023-02-04T10:45:43;2.63;;;0.70;;
52868;SDS011;39100;53.480;6.158;2023-02-04T10:48:17;4.18;;;0.75;;
52868;SDS011;39100;53.480;6.158;2023-02-04T10:50:44;5.50;;;0.77;;
52868;SDS011;39100;53.480;6.158;2023-02-04T10:53:18;4.88;;;0.60;;
52868;SDS011;39100;53.480;6.158;2023-02-04T10:56:05;1.48;;;0.30;;
52868;SDS011;39100;53.480;6.158;2023-02-04T10:58:40;1.08;;;0.38;;
52868;SDS011;39100;53.480;6.158;2023-02-04T11:01:13;2.20;;;0.47;;
52868;SDS011;39100;53.480;6.158;2023-02-04T11:03:40;2.45;;;0.80;;
52868;SDS011;39100;53.480;6.158;2023-02-04T11:06:10;3.03;;;0.65;;
52868;SDS011;39100;53.480;6.158;2023-02-04T11:08:39;6.10;;;0.50;;
52868;SDS011;39100;53.480;6.158;2023-02-04T11:16:30;4.72;;;0.93;;
52868;SDS011;39100;53.480;6.158;2023-02-04T11:24:41;3.35;;;0.70;;
52868;SDS011;39100;53.480;6.158;2023-02-04T11:26:52;2.78;;;0.50;;
52868;SDS011;39100;53.480;6.158;2023-02-04T11:29:44;3.08;;;0.30;;
52868;SDS011;39100;53.480;6.158;2023-02-04T11:37:38;6.13;;;0.55;;
52868;SDS011;39100;53.480;6.158;2023-02-04T11:40:22;3.80;;;0.70;;
52868;SDS011;39100;53.480;6.158;2023-02-04T11:43:07;2.95;;;0.85;;
52868;SDS011;39100;53.480;6.158;2023-02-04T11:45:35;5.00;;;0.50;;
52868;SDS011;39100;53.480;6.158;2023-02-04T11:48:12;3.08;;;1.05;;
52868;SDS011;39100;53.480;6.158;2023-02-04T11:50:40;2.20;;;0.45;;
52868;SDS011;39100;53.480;6.158;2023-02-04T11:53:07;4.80;;;0.70;;
52868;SDS011;39100;53.480;6.158;2023-02-04T11:55:35;5.03;;;1.05;;
52868;SDS011;39100;53.480;6.158;2023-02-04T11:58:11;3.33;;;1.02;;
52868;SDS011;39100;53.480;6.158;2023-02-04T12:00:39;1.27;;;0.43;;
52868;SDS011;39100;53.480;6.158;2023-02-04T12:03:18;4.13;;;0.70;;
52868;SDS011;39100;53.480;6.158;2023-02-04T12:05:54;3.67;;;0.60;;
52868;SDS011;39100;53.480;6.158;2023-02-04T12:10:50;5.13;;;1.38;;
52868;SDS011;39100;53.480;6.158;2023-02-04T12:13:44;4.68;;;0.82;;
52868;SDS011;39100;53.480;6.158;2023-02-04T12:16:15;4.90;;;1.45;;
52868;SDS011;39100;53.480;6.158;2023-02-04T12:18:40;3.85;;;0.90;;
52868;SDS011;39100;53.480;6.158;2023-02-04T12:21:06;8.55;;;0.88;;
52868;SDS011;39100;53.480;6.158;2023-02-04T12:23:32;3.58;;;0.75;;
52868;SDS011;39100;53.480;6.158;2023-02-04T12:25:57;5.97;;;0.40;;
52868;SDS011;39100;53.480;6.158;2023-02-04T12:28:23;1.73;;;0.43;;
52868;SDS011;39100;53.480;6.158;2023-02-04T12:30:49;3.30;;;0.88;;
52868;SDS011;39100;53.480;6.158;2023-02-04T12:33:15;2.55;;;0.60;;
52868;SDS011;39100;53.480;6.158;2023-02-04T12:35:40;2.83;;;0.50;;
52868;SDS011;39100;53.480;6.158;2023-02-04T12:38:06;4.28;;;0.57;;
52868;SDS011;39100;53.480;6.158;2023-02-04T12:40:33;2.75;;;0.70;;
52868;SDS011;39100;53.480;6.158;2023-02-04T12:42:58;2.67;;;0.50;;
52868;SDS011;39100;53.480;6.158;2023-02-04T12:45:24;3.28;;;0.50;;
52868;SDS011;39100;53.480;6.158;2023-02-04T12:47:50;2.90;;;0.93;;
52868;SDS011;39100;53.480;6.158;2023-02-04T12:50:16;2.70;;;0.52;;
52868;SDS011;39100;53.480;6.158;2023-02-04T12:52:52;2.22;;;0.63;;
52868;SDS011;39100;53.480;6.158;2023-02-04T12:55:23;1.52;;;0.35;;
52868;SDS011;39100;53.480;6.158;2023-02-04T12:57:50;4.68;;;0.77;;
52868;SDS011;39100;53.480;6.158;2023-02-04T13:00:16;3.35;;;0.60;;
52868;SDS011;39100;53.480;6.158;2023-02-04T13:02:43;3.67;;;0.63;;
52868;SDS011;39100;53.480;6.158;2023-02-04T13:05:09;6.72;;;0.85;;
52868;SDS011;39100;53.480;6.158;2023-02-04T13:07:35;4.22;;;0.73;;
52868;SDS011;39100;53.480;6.158;2023-02-04T13:10:02;3.70;;;0.88;;
52868;SDS011;39100;53.480;6.158;2023-02-04T13:12:28;4.47;;;1.13;;
52868;SDS011;39100;53.480;6.158;2023-02-04T13:14:53;4.05;;;1.50;;
52868;SDS011;39100;53.480;6.158;2023-02-04T13:17:19;1.73;;;0.40;;
52868;SDS011;39100;53.480;6.158;2023-02-04T13:19:44;3.22;;;0.90;;
52868;SDS011;39100;53.480;6.158;2023-02-04T13:22:10;1.35;;;0.63;;
52868;SDS011;39100;53.480;6.158;2023-02-04T13:24:36;6.72;;;0.80;;
52868;SDS011;39100;53.480;6.158;2023-02-04T13:27:01;1.98;;;0.65;;
52868;SDS011;39100;53.480;6.158;2023-02-04T13:29:27;2.72;;;0.40;;
52868;SDS011;39100;53.480;6.158;2023-02-04T13:31:52;1.42;;;0.30;;
52868;SDS011;39100;53.480;6.158;2023-02-04T13:34:18;3.42;;;0.45;;
52868;SDS011;39100;53.480;6.158;2023-02-04T13:36:43;3.80;;;0.77;;
52868;SDS011;39100;53.480;6.158;2023-02-04T13:39:09;3.05;;;0.65;;
52868;SDS011;39100;53.480;6.158;2023-02-04T13:41:35;2.55;;;0.85;;
52868;SDS011;39100;53.480;6.158;2023-02-04T13:44:01;4.35;;;0.50;;
52868;SDS011;39100;53.480;6.158;2023-02-04T13:46:27;3.00;;;0.50;;
52868;SDS011;39100;53.480;6.158;2023-02-04T13:48:53;1.83;;;0.40;;
52868;SDS011;39100;53.480;6.158;2023-02-04T13:51:19;5.05;;;0.60;;
52868;SDS011;39100;53.480;6.158;2023-02-04T13:53:45;2.78;;;0.77;;
52868;SDS011;39100;53.480;6.158;2023-02-04T13:56:10;2.13;;;0.57;;
52868;SDS011;39100;53.480;6.158;2023-02-04T13:58:36;4.05;;;1.63;;
52868;SDS011;39100;53.480;6.158;2023-02-04T14:01:01;4.57;;;0.65;;
52868;SDS011;39100;53.480;6.158;2023-02-04T14:03:27;2.58;;;0.63;;
52868;SDS011;39100;53.480;6.158;2023-02-04T14:05:54;2.72;;;0.70;;
52868;SDS011;39100;53.480;6.158;2023-02-04T14:08:20;4.82;;;0.63;;
52868;SDS011;39100;53.480;6.158;2023-02-04T14:10:47;1.38;;;0.60;;
52868;SDS011;39100;53.480;6.158;2023-02-04T14:13:12;2.05;;;0.65;;
52868;SDS011;39100;53.480;6.158;2023-02-04T14:15:38;1.52;;;0.35;;
52868;SDS011;39100;53.480;6.158;2023-02-04T14:18:07;4.25;;;0.60;;
52868;SDS011;39100;53.480;6.158;2023-02-04T14:20:34;3.10;;;0.50;;
52868;SDS011;39100;53.480;6.158;2023-02-04T14:22:59;3.10;;;0.68;;
52868;SDS011;39100;53.480;6.158;2023-02-04T14:25:25;2.65;;;0.75;;
52868;SDS011;39100;53.480;6.158;2023-02-04T14:27:51;1.83;;;0.50;;
52868;SDS011;39100;53.480;6.158;2023-02-04T14:30:19;5.72;;;0.63;;
52868;SDS011;39100;53.480;6.158;2023-02-04T14:32:46;4.63;;;0.82;;
52868;SDS011;39100;53.480;6.158;2023-02-04T14:35:12;2.22;;;0.70;;
52868;SDS011;39100;53.480;6.158;2023-02-04T14:37:38;1.58;;;0.63;;
52868;SDS011;39100;53.480;6.158;2023-02-04T14:40:04;2.72;;;0.77;;
52868;SDS011;39100;53.480;6.158;2023-02-04T14:42:29;5.55;;;0.82;;
52868;SDS011;39100;53.480;6.158;2023-02-04T14:44:55;1.55;;;0.30;;
52868;SDS011;39100;53.480;6.158;2023-02-04T14:47:21;3.72;;;0.47;;
52868;SDS011;39100;53.480;6.158;2023-02-04T14:49:47;2.83;;;0.47;;
52868;SDS011;39100;53.480;6.158;2023-02-04T14:52:12;1.63;;;0.70;;
52868;SDS011;39100;53.480;6.158;2023-02-04T14:54:38;2.85;;;0.50;;
52868;SDS011;39100;53.480;6.158;2023-02-04T14:57:04;1.67;;;0.60;;
52868;SDS011;39100;53.480;6.158;2023-02-04T14:59:30;2.67;;;0.75;;
52868;SDS011;39100;53.480;6.158;2023-02-04T15:01:56;4.70;;;0.45;;
52868;SDS011;39100;53.480;6.158;2023-02-04T15:04:22;2.80;;;0.32;;
52868;SDS011;39100;53.480;6.158;2023-02-04T15:06:47;0.45;;;0.20;;